Time;durP1;ratioP1;P1;durP2;ratioP2;P2;SDS_P1;SDS_P2;PMS_P1;PMS_P2;Temp;Humidity;BMP_temperature;BMP_pressure;BME280_temperature;BME280_humidity;BME280_pressure;Samples;Min_cycle;Max_cycle;Signal;HPM_P1;HPM_P2
2023/10/05 00:01:56;;;;;;;2.50;1.87;;;16.00;99.90;;;;;;5110553;28;20223;-66
2023/10/05 00:04:26;;;;;;;4.80;2.03;;;16.00;99.90;;;;;;5105280;28;20197;-66
2023/10/05 00:06:54;;;;;;;3.50;2.10;;;16.00;99.90;;;;;;5108457;28;20203;-66
2023/10/05 00:09:24;;;;;;;2.87;2.00;;;16.00;99.90;;;;;;5103003;28;20192;-66
2023/10/05 00:11:53;;;;;;;3.58;2.10;;;16.10;99.90;;;;;;5107605;28;20199;-66
2023/10/05 00:14:21;;;;;;;4.87;1.77;;;16.10;99.90;;;;;;5110551;28;20190;-66
2023/10/05 00:16:48;;;;;;;5.00;2.30;;;16.00;99.90;;;;;;5109657;28;20766;-66
2023/10/05 00:19:20;;;;;;;3.47;2.05;;;16.10;99.90;;;;;;5101059;28;20235;-66
2023/10/05 00:21:50;;;;;;;3.40;1.90;;;16.10;99.90;;;;;;5110193;28;20274;-66
2023/10/05 00:24:21;;;;;;;3.30;1.95;;;16.10;99.90;;;;;;5105043;28;20195;-65
2023/10/05 00:26:49;;;;;;;2.53;1.47;;;16.10;99.90;;;;;;5107745;28;20195;-65
2023/10/05 00:29:19;;;;;;;4.45;1.95;;;16.10;99.90;;;;;;5110524;28;20194;-65
2023/10/05 00:31:46;;;;;;;4.80;2.30;;;16.10;99.90;;;;;;5122089;28;20325;-65
2023/10/05 00:34:22;;;;;;;5.17;1.87;;;16.10;99.90;;;;;;5108034;28;20230;-65
2023/10/05 00:36:52;;;;;;;1.87;1.60;;;16.10;99.90;;;;;;5111039;28;20203;-65
2023/10/05 00:39:20;;;;;;;5.27;1.77;;;16.10;99.90;;;;;;5102563;28;20233;-64
2023/10/05 00:41:49;;;;;;;2.70;1.60;;;16.10;99.90;;;;;;5106465;28;20199;-65
2023/10/05 00:44:16;;;;;;;3.97;1.80;;;16.10;99.90;;;;;;5101433;28;20204;-66
2023/10/05 00:46:49;;;;;;;2.50;1.60;;;16.10;99.90;;;;;;5106559;28;20202;-65
2023/10/05 00:49:21;;;;;;;3.93;1.63;;;16.10;99.90;;;;;;5109679;28;20269;-65
2023/10/05 00:51:59;;;;;;;3.60;2.10;;;16.10;99.90;;;;;;5107964;28;20219;-65
2023/10/05 00:54:30;;;;;;;5.63;2.00;;;16.10;99.90;;;;;;5107521;28;20209;-66
2023/10/05 00:57:02;;;;;;;2.57;1.93;;;16.10;99.90;;;;;;5108720;28;20672;-65
2023/10/05 00:59:31;;;;;;;3.47;1.93;;;16.30;99.90;;;;;;5105921;28;20251;-65
2023/10/05 01:02:14;;;;;;;5.38;1.70;;;16.00;99.90;;;;;;5110556;28;20191;-65
2023/10/05 01:04:56;;;;;;;1.80;1.57;;;16.10;99.90;;;;;;5107536;28;20415;-65
2023/10/05 01:10:29;;;;;;;2.75;2.00;;;16.00;99.90;;;;;;5103783;28;20201;-65
2023/10/05 01:12:57;;;;;;;2.90;1.40;;;16.10;99.90;;;;;;5108147;28;20190;-65
2023/10/05 01:15:30;;;;;;;2.03;1.73;;;16.10;99.90;;;;;;5113413;28;20203;-65
2023/10/05 01:17:59;;;;;;;6.20;2.17;;;16.10;99.90;;;;;;5098077;28;20291;-65
2023/10/05 01:20:29;;;;;;;2.30;1.70;;;16.00;99.90;;;;;;5109798;28;20275;-65
2023/10/05 01:23:04;;;;;;;2.63;1.80;;;16.10;99.90;;;;;;5113230;28;20200;-65
2023/10/05 01:25:32;;;;;;;2.37;1.77;;;16.10;99.90;;;;;;5110401;28;20223;-65
2023/10/05 01:27:59;;;;;;;5.27;2.30;;;16.00;99.90;;;;;;5109332;28;20198;-65
2023/10/05 01:30:26;;;;;;;3.33;1.90;;;16.00;99.90;;;;;;5112153;28;20260;-65
2023/10/05 01:32:54;;;;;;;2.87;1.63;;;16.00;99.90;;;;;;5112061;27;20206;-66
2023/10/05 01:35:23;;;;;;;1.60;1.50;;;16.00;99.90;;;;;;5109638;28;20228;-66
2023/10/05 01:37:53;;;;;;;5.10;2.00;;;16.00;99.90;;;;;;5113425;28;20202;-66
2023/10/05 01:40:25;;;;;;;3.83;2.07;;;16.10;99.90;;;;;;5109807;28;20222;-64
2023/10/05 01:42:54;;;;;;;3.63;1.73;;;16.00;99.90;;;;;;5106203;28;20202;-65
2023/10/05 01:45:24;;;;;;;3.33;1.70;;;16.10;99.90;;;;;;5113110;28;20527;-65
2023/10/05 01:47:52;;;;;;;3.15;1.92;;;16.00;99.90;;;;;;5108706;28;20214;-65
2023/10/05 01:50:22;;;;;;;2.53;1.83;;;16.00;99.90;;;;;;5112964;28;20203;-65
2023/10/05 01:52:56;;;;;;;2.90;1.90;;;16.00;99.90;;;;;;5112219;28;20216;-65
2023/10/05 01:55:25;;;;;;;5.17;2.10;;;16.00;99.90;;;;;;5104212;27;20267;-64
2023/10/05 01:57:53;;;;;;;3.60;2.10;;;16.00;99.90;;;;;;5110893;28;20349;-65
2023/10/05 02:00:22;;;;;;;3.03;1.80;;;16.10;99.90;;;;;;5111222;28;20663;-64
2023/10/05 02:02:52;;;;;;;3.97;2.25;;;16.00;99.90;;;;;;5141959;27;20206;-64
2023/10/05 02:05:21;;;;;;;5.15;2.13;;;16.00;99.90;;;;;;5113004;28;20255;-66
2023/10/05 02:07:49;;;;;;;2.57;1.70;;;16.00;99.90;;;;;;5109899;28;20550;-66
2023/10/05 02:10:20;;;;;;;3.83;2.00;;;16.00;99.90;;;;;;5111660;28;20189;-66
2023/10/05 02:12:53;;;;;;;6.05;2.47;;;16.00;99.90;;;;;;5110802;28;20660;-66
2023/10/05 02:15:28;;;;;;;3.60;2.13;;;16.00;99.90;;;;;;5103546;28;20190;-65
2023/10/05 02:17:56;;;;;;;4.67;2.20;;;16.00;99.90;;;;;;5112390;28;20547;-65
2023/10/05 02:20:39;;;;;;;3.67;2.17;;;16.00;99.90;;;;;;5112441;28;20302;-65
2023/10/05 02:23:25;;;;;;;3.10;1.90;;;16.00;99.90;;;;;;5107639;28;20200;-66
2023/10/05 02:26:05;;;;;;;4.17;2.27;;;16.00;99.90;;;;;;5111903;28;20286;-66
2023/10/05 02:28:35;;;;;;;5.50;2.20;;;16.00;99.90;;;;;;5139504;27;20202;-66
2023/10/05 02:31:05;;;;;;;3.53;1.77;;;16.00;99.90;;;;;;5111405;28;20190;-65
2023/10/05 02:33:33;;;;;;;5.27;2.40;;;16.00;99.90;;;;;;5110282;28;20243;-66
2023/10/05 02:36:11;;;;;;;4.63;2.33;;;16.00;99.90;;;;;;5105514;28;20198;-66
2023/10/05 02:38:49;;;;;;;3.93;2.20;;;16.00;99.90;;;;;;5112391;28;20279;-66
2023/10/05 02:41:24;;;;;;;4.33;2.20;;;16.10;99.90;;;;;;5144539;27;20316;-66
2023/10/05 02:43:53;;;;;;;4.20;1.97;;;16.10;99.90;;;;;;5106024;28;20205;-66
2023/10/05 02:46:24;;;;;;;8.80;2.20;;;16.10;99.90;;;;;;5144902;27;20707;-66
2023/10/05 02:48:52;;;;;;;3.53;2.10;;;16.00;99.90;;;;;;5109217;28;20212;-66
2023/10/05 02:51:20;;;;;;;3.90;2.20;;;16.00;99.90;;;;;;5125312;27;20206;-66
2023/10/05 02:53:47;;;;;;;2.97;2.10;;;16.10;99.90;;;;;;5111970;28;20198;-66
2023/10/05 02:56:26;;;;;;;3.23;2.00;;;16.00;99.90;;;;;;5105953;28;20202;-66
2023/10/05 02:59:02;;;;;;;6.30;2.37;;;16.00;99.90;;;;;;5126075;27;20238;-65
2023/10/05 03:01:32;;;;;;;4.85;2.40;;;16.00;99.90;;;;;;5144803;27;20208;-66
2023/10/05 03:04:04;;;;;;;4.50;2.40;;;16.00;99.90;;;;;;5096722;28;20190;-66
2023/10/05 03:06:31;;;;;;;3.33;2.17;;;16.00;99.90;;;;;;5127561;27;20213;-66
2023/10/05 03:09:06;;;;;;;4.90;2.33;;;16.00;99.90;;;;;;5100439;28;20280;-66
2023/10/05 03:11:37;;;;;;;6.00;2.17;;;16.00;99.90;;;;;;5106225;28;20702;-65
2023/10/05 03:14:09;;;;;;;4.83;2.20;;;15.90;99.90;;;;;;5110097;28;20280;-65
2023/10/05 03:16:43;;;;;;;6.60;2.87;;;15.90;99.90;;;;;;5142655;27;20229;-65
2023/10/05 03:19:13;;;;;;;4.97;2.33;;;15.90;99.90;;;;;;5108610;28;20254;-65
2023/10/05 03:21:40;;;;;;;5.57;2.43;;;15.90;99.90;;;;;;5111287;28;20207;-66
2023/10/05 03:24:13;;;;;;;4.47;2.33;;;15.90;99.90;;;;;;5106229;28;20192;-66
2023/10/05 03:26:41;;;;;;;5.27;2.60;;;15.90;99.90;;;;;;5110673;27;20205;-66
2023/10/05 03:29:11;;;;;;;6.07;2.23;;;15.80;99.90;;;;;;5108315;28;20207;-66
2023/10/05 03:31:43;;;;;;;3.03;2.10;;;15.80;99.90;;;;;;5107201;28;20198;-66
2023/10/05 03:34:11;;;;;;;5.27;2.17;;;15.80;99.90;;;;;;5108368;28;20620;-65
2023/10/05 03:36:38;;;;;;;2.80;2.00;;;15.80;99.90;;;;;;5109103;28;20202;-66
2023/10/05 03:39:07;;;;;;;4.20;1.80;;;15.80;99.90;;;;;;5107349;28;20659;-66
2023/10/05 03:41:38;;;;;;;2.57;1.67;;;15.80;99.90;;;;;;5108482;28;20204;-65
2023/10/05 03:44:07;;;;;;;4.23;2.27;;;15.80;99.90;;;;;;5109905;28;20192;-65
2023/10/05 03:46:36;;;;;;;4.00;1.87;;;15.80;99.90;;;;;;5104650;28;20657;-65
2023/10/05 03:49:06;;;;;;;3.67;2.07;;;15.80;99.90;;;;;;5108671;28;20193;-65
2023/10/05 03:51:37;;;;;;;6.77;2.43;;;15.80;99.90;;;;;;5106132;28;20304;-66
2023/10/05 03:54:07;;;;;;;3.87;2.20;;;15.80;99.90;;;;;;5106616;28;20235;-65
2023/10/05 03:56:36;;;;;;;4.90;2.50;;;15.80;99.90;;;;;;5103966;28;20259;-65
2023/10/05 03:59:04;;;;;;;3.23;1.80;;;15.80;99.90;;;;;;5104482;28;20256;-65
2023/10/05 04:01:31;;;;;;;3.77;2.50;;;15.80;99.90;;;;;;5110288;28;20192;-65
2023/10/05 04:04:05;;;;;;;4.27;2.10;;;15.80;99.90;;;;;;5139297;27;20211;-65
2023/10/05 04:06:32;;;;;;;2.40;1.70;;;15.70;99.90;;;;;;5105227;28;20189;-65
2023/10/05 04:08:59;;;;;;;2.37;1.77;;;15.70;99.90;;;;;;5103379;28;20560;-65
2023/10/05 04:11:27;;;;;;;4.30;2.00;;;15.80;99.90;;;;;;5109702;28;20209;-65
2023/10/05 04:13:55;;;;;;;5.43;2.03;;;15.70;99.90;;;;;;5108149;28;20233;-65
2023/10/05 04:16:26;;;;;;;5.47;2.03;;;15.70;99.90;;;;;;5109881;28;20277;-65
2023/10/05 04:18:54;;;;;;;4.87;2.20;;;15.80;99.90;;;;;;5107840;28;20655;-65
2023/10/05 04:21:23;;;;;;;4.50;2.10;;;15.70;99.90;;;;;;5102681;28;20209;-65
2023/10/05 04:23:51;;;;;;;5.23;2.20;;;15.70;99.90;;;;;;5103947;28;20202;-65
2023/10/05 04:26:22;;;;;;;3.27;2.00;;;15.70;99.90;;;;;;5138450;27;20719;-66
2023/10/05 04:28:54;;;;;;;3.63;2.33;;;15.70;99.90;;;;;;5110201;28;20274;-66
2023/10/05 04:31:25;;;;;;;3.60;2.03;;;15.70;99.90;;;;;;5110061;28;20194;-66
2023/10/05 04:33:53;;;;;;;4.13;1.97;;;15.70;99.90;;;;;;5106573;28;20216;-66
2023/10/05 04:36:23;;;;;;;2.80;1.90;;;15.70;99.90;;;;;;5109523;28;20201;-67
2023/10/05 04:38:53;;;;;;;3.70;2.17;;;15.70;99.90;;;;;;5110272;28;20598;-65
2023/10/05 04:41:20;;;;;;;4.33;2.20;;;15.70;99.90;;;;;;5100444;28;20269;-65
2023/10/05 04:43:49;;;;;;;5.37;2.60;;;15.70;99.90;;;;;;5111092;28;20211;-65
2023/10/05 04:46:18;;;;;;;3.50;2.17;;;15.70;99.90;;;;;;5114320;28;20201;-65
2023/10/05 04:48:56;;;;;;;3.17;2.03;;;15.70;99.90;;;;;;5108808;28;20260;-65
2023/10/05 04:51:28;;;;;;;4.73;1.93;;;15.70;99.90;;;;;;5113698;28;20603;-65
2023/10/05 04:53:58;;;;;;;4.00;2.43;;;15.70;99.90;;;;;;5111247;28;20258;-65
2023/10/05 04:56:35;;;;;;;4.43;2.37;;;15.70;99.90;;;;;;5112740;28;20560;-66
2023/10/05 04:59:36;;;;;;;3.07;2.10;;;15.70;99.90;;;;;;5114055;28;20228;-65
2023/10/05 05:02:12;;;;;;;5.57;2.27;;;15.70;99.90;;;;;;5108563;28;20953;-65
2023/10/05 05:04:52;;;;;;;3.60;2.20;;;15.60;99.90;;;;;;5113157;28;20271;-65
2023/10/05 05:07:22;;;;;;;5.83;2.30;;;15.60;99.90;;;;;;5110894;28;20280;-65
2023/10/05 05:09:50;;;;;;;4.10;2.20;;;15.60;99.90;;;;;;5110678;28;20740;-65
2023/10/05 05:12:17;;;;;;;4.10;2.47;;;15.60;99.90;;;;;;5111737;28;20572;-65
2023/10/05 05:14:45;;;;;;;2.57;1.83;;;15.60;99.90;;;;;;5110774;28;20261;-66
2023/10/05 05:17:14;;;;;;;3.97;1.87;;;15.60;99.90;;;;;;5104392;27;20225;-66
2023/10/05 05:19:41;;;;;;;4.67;2.13;;;15.50;99.90;;;;;;5112997;28;20240;-65
2023/10/05 05:22:09;;;;;;;3.17;2.20;;;15.50;99.90;;;;;;5110432;28;20205;-65
2023/10/05 05:24:38;;;;;;;4.73;2.37;;;15.50;99.90;;;;;;5113586;28;20257;-66
2023/10/05 05:27:11;;;;;;;4.83;2.10;;;15.50;99.90;;;;;;5113116;28;20213;-66
2023/10/05 05:29:39;;;;;;;1.80;1.70;;;15.50;99.90;;;;;;5109191;28;20206;-65
2023/10/05 05:32:10;;;;;;;4.37;1.73;;;15.50;99.90;;;;;;5113482;28;20570;-66
2023/10/05 05:34:37;;;;;;;8.23;2.33;;;15.50;99.90;;;;;;5112346;28;20768;-66
2023/10/05 05:37:05;;;;;;;5.23;2.63;;;15.60;99.90;;;;;;5109968;28;20281;-66
2023/10/05 05:39:38;;;;;;;4.20;2.47;;;15.50;99.90;;;;;;5113409;28;20192;-66
2023/10/05 05:42:13;;;;;;;2.83;2.17;;;15.50;99.90;;;;;;5109866;28;20197;-66
2023/10/05 05:44:41;;;;;;;2.63;1.90;;;15.60;99.90;;;;;;5109018;28;20613;-66
2023/10/05 05:47:09;;;;;;;4.13;2.73;;;15.60;99.90;;;;;;5112928;28;20200;-66
2023/10/05 05:49:38;;;;;;;3.23;2.20;;;15.60;99.90;;;;;;5108685;28;20558;-65
2023/10/05 05:52:05;;;;;;;4.27;2.10;;;15.60;99.90;;;;;;5112355;28;20188;-65
2023/10/05 05:54:33;;;;;;;3.90;2.13;;;15.60;99.90;;;;;;5113128;28;20272;-65
2023/10/05 05:57:00;;;;;;;3.37;2.03;;;15.60;99.90;;;;;;5106273;28;20539;-66
2023/10/05 05:59:28;;;;;;;2.27;1.80;;;15.50;99.90;;;;;;5113187;28;20188;-66
2023/10/05 06:01:56;;;;;;;2.13;1.80;;;15.60;99.90;;;;;;5112507;28;20216;-66
2023/10/05 06:04:25;;;;;;;4.20;2.00;;;15.60;99.90;;;;;;5108538;28;20312;-66
2023/10/05 06:06:52;;;;;;;5.00;2.33;;;15.60;99.90;;;;;;5112371;28;20199;-64
2023/10/05 06:09:22;;;;;;;2.93;2.10;;;15.60;99.90;;;;;;5103025;28;20227;-66
2023/10/05 06:11:50;;;;;;;4.37;2.30;;;15.60;99.90;;;;;;5108522;28;20635;-66
2023/10/05 06:14:18;;;;;;;2.40;2.00;;;15.60;99.90;;;;;;5114946;27;20204;-66
2023/10/05 06:16:48;;;;;;;3.23;2.07;;;15.60;99.90;;;;;;5102295;27;20194;-66
2023/10/05 06:19:15;;;;;;;4.80;2.83;;;15.50;99.90;;;;;;5109789;28;20227;-65
2023/10/05 06:21:42;;;;;;;7.03;2.70;;;15.50;99.90;;;;;;5109018;27;20532;-66
2023/10/05 06:24:10;;;;;;;2.97;2.17;;;15.50;99.90;;;;;;5107576;27;20208;-66
2023/10/05 06:26:38;;;;;;;3.77;2.70;;;15.50;99.90;;;;;;5108432;28;20276;-66
2023/10/05 06:29:08;;;;;;;4.77;2.50;;;15.50;99.90;;;;;;5108809;28;20281;-66
2023/10/05 06:31:36;;;;;;;4.03;2.53;;;15.50;99.90;;;;;;5106534;28;20224;-65
2023/10/05 06:34:09;;;;;;;3.80;2.40;;;15.50;99.90;;;;;;5109419;28;20199;-66
2023/10/05 06:36:37;;;;;;;3.20;2.10;;;15.50;99.90;;;;;;5105640;28;20237;-65
2023/10/05 06:39:05;;;;;;;2.33;2.00;;;15.60;99.90;;;;;;5107319;28;20211;-66
2023/10/05 06:41:34;;;;;;;2.40;2.00;;;15.60;99.90;;;;;;5109112;28;20215;-66
2023/10/05 06:44:02;;;;;;;6.03;2.33;;;15.60;99.90;;;;;;5106185;28;20196;-65
2023/10/05 06:46:29;;;;;;;3.60;2.63;;;15.60;99.90;;;;;;5109292;28;20200;-66
2023/10/05 06:48:57;;;;;;;5.30;3.23;;;15.60;99.90;;;;;;5109515;28;20641;-66
2023/10/05 06:51:27;;;;;;;5.90;3.37;;;15.60;99.90;;;;;;5105193;27;20185;-65
2023/10/05 06:53:54;;;;;;;5.87;2.90;;;15.60;99.90;;;;;;5109141;28;20264;-66
2023/10/05 06:56:22;;;;;;;6.13;3.00;;;15.60;99.90;;;;;;5108892;28;20206;-65
2023/10/05 06:58:49;;;;;;;6.07;2.90;;;15.50;99.90;;;;;;5106200;28;20903;-66
2023/10/05 07:01:20;;;;;;;6.00;2.87;;;15.60;99.90;;;;;;5110419;28;20204;-66
2023/10/05 07:03:52;;;;;;;5.93;3.30;;;15.60;99.90;;;;;;5108995;28;20565;-65
2023/10/05 07:06:22;;;;;;;6.20;3.33;;;15.60;99.90;;;;;;5105692;28;20196;-66
2023/10/05 07:08:52;;;;;;;6.23;3.33;;;15.50;99.90;;;;;;5110178;28;20196;-65
2023/10/05 07:11:19;;;;;;;4.43;2.90;;;15.50;99.90;;;;;;5106359;28;20262;-66
2023/10/05 07:13:47;;;;;;;7.00;3.20;;;15.60;99.90;;;;;;5105103;27;20211;-65
2023/10/05 07:16:15;;;;;;;4.77;3.07;;;15.50;99.90;;;;;;5107509;27;20248;-66
2023/10/05 07:18:42;;;;;;;4.60;2.87;;;15.60;99.90;;;;;;5101884;28;20449;-66
2023/10/05 07:21:10;;;;;;;5.87;3.23;;;15.60;99.90;;;;;;5109582;27;20216;-66
2023/10/05 07:23:37;;;;;;;6.30;2.77;;;15.60;99.90;;;;;;5099117;28;20223;-66
2023/10/05 07:26:06;;;;;;;8.13;3.70;;;15.60;99.90;;;;;;5107585;28;20219;-66
2023/10/05 07:28:34;;;;;;;4.53;3.20;;;15.60;99.90;;;;;;5106916;27;20273;-66
2023/10/05 07:31:03;;;;;;;10.17;3.30;;;15.60;99.90;;;;;;5110352;28;20212;-66
2023/10/05 07:33:30;;;;;;;8.97;3.43;;;15.60;99.90;;;;;;5104098;28;20218;-67
2023/10/05 07:35:57;;;;;;;4.10;2.73;;;15.60;99.90;;;;;;5109920;28;20939;-66
2023/10/05 07:38:27;;;;;;;5.07;3.07;;;15.60;99.90;;;;;;5105345;28;20297;-66
2023/10/05 07:40:54;;;;;;;4.63;3.13;;;15.60;99.90;;;;;;5106371;28;20766;-65
2023/10/05 07:43:23;;;;;;;5.13;3.20;;;15.60;99.90;;;;;;5104521;28;20655;-66
2023/10/05 07:45:50;;;;;;;4.83;3.13;;;15.60;99.90;;;;;;5109901;28;20189;-65
2023/10/05 07:48:17;;;;;;;3.70;2.33;;;15.60;99.90;;;;;;5104585;28;20195;-66
2023/10/05 07:50:45;;;;;;;7.47;3.20;;;15.60;99.90;;;;;;5109735;28;20192;-65
2023/10/05 07:53:12;;;;;;;6.90;3.10;;;15.70;99.90;;;;;;5106414;28;20203;-65
2023/10/05 07:55:39;;;;;;;7.57;3.10;;;15.60;99.90;;;;;;5107622;28;20202;-65
2023/10/05 07:58:06;;;;;;;8.53;3.30;;;15.70;99.90;;;;;;5110784;27;20239;-65
2023/10/05 08:00:35;;;;;;;6.73;2.77;;;15.60;99.90;;;;;;5105795;28;20839;-65
2023/10/05 08:03:03;;;;;;;4.37;2.70;;;15.60;99.90;;;;;;5111947;27;20185;-65
2023/10/05 08:05:31;;;;;;;3.57;2.47;;;15.60;99.90;;;;;;5107415;28;20294;-65
2023/10/05 08:07:58;;;;;;;5.40;3.00;;;15.60;99.90;;;;;;5101583;27;20204;-65
2023/10/05 08:10:25;;;;;;;7.93;2.70;;;15.60;99.90;;;;;;5100717;28;20227;-65
2023/10/05 08:12:53;;;;;;;2.97;2.43;;;15.60;99.90;;;;;;5118459;27;20209;-66
2023/10/05 08:15:20;;;;;;;4.07;2.80;;;15.60;99.90;;;;;;5105205;28;20203;-65
2023/10/05 08:17:49;;;;;;;6.50;3.17;;;15.60;99.90;;;;;;5136854;27;20844;-65
2023/10/05 08:20:17;;;;;;;5.87;3.10;;;15.60;99.90;;;;;;5106525;28;20217;-65
2023/10/05 08:22:46;;;;;;;5.47;3.13;;;15.60;99.90;;;;;;5109894;27;20260;-65
2023/10/05 08:25:14;;;;;;;3.87;2.40;;;15.60;99.90;;;;;;5108929;28;20256;-66
2023/10/05 08:27:42;;;;;;;3.53;2.50;;;15.60;99.90;;;;;;5112976;28;20192;-66
2023/10/05 08:30:11;;;;;;;4.37;2.60;;;15.60;99.90;;;;;;5109252;28;20211;-65
2023/10/05 08:32:39;;;;;;;4.37;2.57;;;15.60;99.90;;;;;;5140913;27;20209;-66
2023/10/05 08:35:13;;;;;;;2.67;2.20;;;15.60;99.90;;;;;;5105122;28;20613;-66
2023/10/05 08:37:47;;;;;;;5.43;2.53;;;15.70;99.90;;;;;;5107071;28;20512;-65
2023/10/05 08:40:37;;;;;;;4.73;2.43;;;15.70;99.90;;;;;;5107944;28;20196;-66
2023/10/05 08:43:10;;;;;;;2.50;2.10;;;15.80;99.90;;;;;;5105711;28;20203;-66
2023/10/05 08:45:49;;;;;;;2.93;1.83;;;15.80;99.90;;;;;;5108932;28;20217;-65
2023/10/05 08:48:22;;;;;;;3.67;1.93;;;15.80;99.90;;;;;;5106328;28;20211;-65
2023/10/05 08:50:56;;;;;;;7.07;2.40;;;15.80;99.90;;;;;;5108389;28;20290;-66
2023/10/05 08:53:24;;;;;;;4.50;2.27;;;15.80;99.90;;;;;;5107081;28;20198;-66
2023/10/05 08:55:52;;;;;;;2.40;2.10;;;15.80;99.90;;;;;;5103472;28;20621;-67
2023/10/05 08:58:22;;;;;;;4.80;2.27;;;15.70;99.90;;;;;;5104127;28;20255;-66
2023/10/05 09:00:49;;;;;;;2.77;2.10;;;15.70;99.90;;;;;;5107131;28;20882;-65
2023/10/05 09:03:35;;;;;;;2.00;1.80;;;15.70;99.90;;;;;;5100187;28;20208;-66
2023/10/05 09:06:15;;;;;;;1.77;1.60;;;15.70;99.90;;;;;;5126237;27;20191;-66
2023/10/05 09:08:51;;;;;;;1.60;1.50;;;15.80;99.90;;;;;;5106605;28;20236;-66
2023/10/05 09:11:22;;;;;;;3.97;1.90;;;15.80;99.90;;;;;;5097265;28;20184;-65
2023/10/05 09:13:49;;;;;;;2.77;1.90;;;15.80;99.90;;;;;;5097618;28;20199;-65
2023/10/05 09:16:30;;;;;;;2.80;1.87;;;15.90;99.90;;;;;;5102561;28;20190;-66
2023/10/05 09:19:00;;;;;;;1.87;1.50;;;15.90;99.90;;;;;;5104223;28;20220;-66
2023/10/05 09:21:50;;;;;;;2.43;1.83;;;15.90;99.90;;;;;;5106827;28;20656;-66
2023/10/05 09:24:21;;;;;;;1.97;1.40;;;15.90;99.90;;;;;;5103180;28;20551;-66
2023/10/05 09:26:56;;;;;;;2.10;1.90;;;15.90;99.90;;;;;;5106454;28;20234;-66
2023/10/05 09:29:27;;;;;;;2.03;1.80;;;15.90;99.90;;;;;;5106741;28;20189;-66
2023/10/05 09:31:56;;;;;;;2.10;1.90;;;15.90;99.90;;;;;;5112265;27;20281;-66
2023/10/05 09:34:39;;;;;;;2.23;1.70;;;15.90;99.90;;;;;;5101946;28;20199;-66
2023/10/05 09:37:09;;;;;;;2.27;1.53;;;15.80;99.90;;;;;;5107145;28;20197;-66
2023/10/05 09:39:42;;;;;;;2.40;1.50;;;15.80;99.90;;;;;;5111070;28;20262;-66
2023/10/05 09:42:17;;;;;;;4.73;2.13;;;15.80;99.90;;;;;;5101095;28;20228;-67
2023/10/05 09:44:57;;;;;;;1.97;1.77;;;15.80;99.90;;;;;;5108990;28;20193;-66
2023/10/05 09:47:26;;;;;;;2.73;1.87;;;15.80;99.90;;;;;;5110534;28;20204;-65
2023/10/05 09:49:58;;;;;;;2.27;2.03;;;15.80;99.90;;;;;;5103880;28;20188;-66
2023/10/05 09:52:31;;;;;;;2.13;1.83;;;15.70;99.90;;;;;;5097653;27;20656;-66
2023/10/05 09:54:59;;;;;;;1.87;1.40;;;15.70;99.90;;;;;;5103925;27;20204;-66
2023/10/05 09:57:26;;;;;;;1.90;1.40;;;15.70;99.90;;;;;;5097288;28;20259;-66
2023/10/05 09:59:59;;;;;;;1.57;1.40;;;15.70;99.90;;;;;;5112118;27;20200;-65
2023/10/05 10:02:38;;;;;;;1.10;1.00;;;15.70;99.90;;;;;;5110228;28;20201;-66
2023/10/05 10:05:25;;;;;;;1.90;1.20;;;15.60;99.90;;;;;;5106571;28;20303;-67
2023/10/05 10:07:56;;;;;;;1.50;1.40;;;15.60;99.90;;;;;;5110000;28;20195;-67
2023/10/05 10:10:26;;;;;;;3.30;1.67;;;15.60;99.90;;;;;;5109975;28;20441;-65
2023/10/05 10:12:54;;;;;;;1.50;1.10;;;15.80;99.90;;;;;;5106455;28;20663;-65
2023/10/05 10:15:28;;;;;;;1.93;1.30;;;16.00;99.90;;;;;;5110303;28;20193;-66
2023/10/05 10:18:13;;;;;;;3.20;1.40;;;16.20;99.90;;;;;;5109135;28;20292;-66
2023/10/05 10:20:45;;;;;;;1.60;1.25;;;17.30;99.90;;;;;;5109202;28;20205;-66
2023/10/05 10:23:19;;;;;;;3.10;1.52;;;19.10;99.90;;;;;;5110008;27;20287;-65
2023/10/05 10:25:49;;;;;;;1.83;1.23;;;20.70;99.90;;;;;;5102703;28;20199;-66
2023/10/05 10:28:20;;;;;;;2.25;1.45;;;21.80;99.90;;;;;;5114948;27;20207;-65
2023/10/05 10:30:48;;;;;;;2.60;1.30;;;23.00;99.90;;;;;;5110579;28;20273;-65
2023/10/05 10:33:26;;;;;;;2.72;1.48;;;23.70;99.30;;;;;;5105372;28;20242;-66
2023/10/05 10:35:54;;;;;;;1.30;1.20;;;24.10;97.90;;;;;;5104104;28;20195;-66
2023/10/05 10:38:22;;;;;;;1.70;1.17;;;24.50;97.20;;;;;;5137701;27;20200;-66
2023/10/05 10:41:07;;;;;;;1.20;1.10;;;24.80;96.80;;;;;;5104850;27;20241;-66
2023/10/05 10:43:34;;;;;;;1.08;1.02;;;24.40;96.50;;;;;;5106134;28;20180;-66
2023/10/05 10:46:08;;;;;;;1.90;1.33;;;23.50;96.60;;;;;;5106553;28;20271;-66
2023/10/05 10:48:52;;;;;;;1.67;1.55;;;22.70;97.20;;;;;;5110079;28;20270;-66
2023/10/05 10:51:21;;;;;;;2.67;1.40;;;21.90;97.10;;;;;;5109011;28;20274;-66
2023/10/05 10:53:56;;;;;;;3.42;1.52;;;21.30;97.90;;;;;;5106608;28;20192;-66
2023/10/05 10:56:29;;;;;;;1.40;1.30;;;20.80;98.30;;;;;;5108713;28;20357;-66
2023/10/05 10:59:09;;;;;;;4.18;1.77;;;20.50;98.50;;;;;;5107643;28;20314;-66
2023/10/05 11:01:43;;;;;;;4.70;1.98;;;20.20;98.40;;;;;;5110798;27;20734;-66
2023/10/05 11:04:23;;;;;;;2.08;1.45;;;19.80;98.70;;;;;;5108131;28;20199;-65
2023/10/05 11:06:59;;;;;;;4.80;1.83;;;19.60;99.00;;;;;;5107491;28;20211;-66
2023/10/05 11:09:46;;;;;;;3.63;1.33;;;19.40;99.20;;;;;;5107661;28;20214;-65
2023/10/05 11:12:17;;;;;;;4.05;1.45;;;19.20;99.30;;;;;;5106677;27;20531;-66
2023/10/05 11:14:45;;;;;;;3.55;1.60;;;19.00;99.40;;;;;;5109549;28;20192;-66
2023/10/05 11:17:26;;;;;;;3.22;1.73;;;18.90;99.40;;;;;;5110507;28;20221;-66
2023/10/05 11:19:53;;;;;;;2.17;1.23;;;18.70;99.50;;;;;;5108246;27;20299;-66
2023/10/05 11:22:24;;;;;;;2.17;1.40;;;18.60;99.40;;;;;;5109926;27;20210;-65
2023/10/05 11:27:56;;;;;;;2.20;1.33;;;18.30;99.10;;;;;;5106876;28;20279;-66
2023/10/05 11:30:26;;;;;;;2.53;1.23;;;18.20;99.30;;;;;;5111506;27;20965;-66
2023/10/05 11:32:57;;;;;;;2.78;1.35;;;18.20;99.40;;;;;;5105708;28;20265;-65
2023/10/05 11:35:29;;;;;;;1.27;1.13;;;18.20;99.30;;;;;;5108343;28;20200;-66
2023/10/05 11:38:03;;;;;;;2.97;1.60;;;18.20;99.20;;;;;;5109586;27;20199;-66
2023/10/05 11:40:34;;;;;;;2.70;1.42;;;18.20;99.20;;;;;;5102873;28;20197;-65
2023/10/05 11:43:12;;;;;;;3.60;1.38;;;18.20;99.30;;;;;;5107502;28;20584;-66
2023/10/05 11:45:54;;;;;;;2.28;1.42;;;18.30;99.40;;;;;;5109452;28;20593;-67
2023/10/05 11:48:22;;;;;;;1.70;1.00;;;18.30;99.30;;;;;;5106878;27;20404;-65
2023/10/05 11:50:52;;;;;;;2.50;1.27;;;18.30;99.20;;;;;;5109341;28;20200;-65
2023/10/05 11:53:22;;;;;;;4.90;1.98;;;18.30;99.00;;;;;;5111965;27;20515;-65
2023/10/05 11:55:51;;;;;;;2.47;1.20;;;18.30;98.70;;;;;;5108726;27;20188;-65
2023/10/05 11:58:20;;;;;;;4.15;1.60;;;18.30;98.70;;;;;;5109055;27;20234;-65
2023/10/05 12:00:47;;;;;;;3.60;1.50;;;18.30;98.20;;;;;;5107456;27;20714;-66
2023/10/05 12:03:16;;;;;;;1.98;1.30;;;18.30;97.90;;;;;;5109891;27;20242;-66
2023/10/05 12:05:44;;;;;;;3.30;1.48;;;18.30;97.90;;;;;;5108678;28;20202;-66
2023/10/05 12:08:12;;;;;;;5.93;1.63;;;18.30;97.70;;;;;;5103381;27;20605;-66
2023/10/05 12:10:41;;;;;;;4.38;1.45;;;18.30;97.60;;;;;;5103309;28;20195;-66
2023/10/05 12:13:09;;;;;;;4.57;1.73;;;18.30;97.70;;;;;;5132194;27;20609;-66
2023/10/05 12:15:38;;;;;;;2.22;0.80;;;18.40;97.60;;;;;;5106070;28;20188;-66
2023/10/05 12:18:12;;;;;;;5.78;1.58;;;18.30;97.30;;;;;;5106435;28;20343;-65
2023/10/05 12:20:42;;;;;;;3.60;1.13;;;18.30;97.10;;;;;;5107876;28;20523;-65
2023/10/05 12:23:14;;;;;;;2.90;1.20;;;18.20;97.00;;;;;;5105324;28;20687;-66
2023/10/05 12:25:42;;;;;;;3.67;1.20;;;18.20;97.20;;;;;;5111223;27;20192;-67
2023/10/05 12:28:11;;;;;;;1.88;0.93;;;18.40;97.40;;;;;;5109458;27;20192;-66
2023/10/05 12:30:40;;;;;;;2.35;1.40;;;18.80;97.20;;;;;;5105415;28;20528;-65
2023/10/05 12:33:09;;;;;;;1.20;1.00;;;19.10;96.90;;;;;;5107909;28;20669;-66
2023/10/05 12:35:37;;;;;;;4.78;1.20;;;19.60;96.50;;;;;;5104864;28;20261;-66
2023/10/05 12:38:06;;;;;;;2.22;1.30;;;20.00;95.80;;;;;;5092741;28;20343;-66
2023/10/05 12:40:35;;;;;;;2.47;1.10;;;20.60;94.80;;;;;;5094369;28;20253;-65
2023/10/05 12:43:03;;;;;;;3.30;1.30;;;21.10;93.90;;;;;;5101278;28;20309;-65
2023/10/05 12:45:32;;;;;;;2.67;1.48;;;21.10;93.20;;;;;;5109237;28;20192;-66
2023/10/05 12:47:59;;;;;;;2.40;1.23;;;20.70;93.10;;;;;;5108011;28;20651;-66
2023/10/05 12:50:27;;;;;;;5.40;1.58;;;20.30;93.00;;;;;;5108349;28;20200;-66
2023/10/05 12:52:56;;;;;;;2.30;1.10;;;19.90;92.70;;;;;;5105992;28;20308;-66
2023/10/05 12:55:26;;;;;;;2.42;1.08;;;19.70;93.00;;;;;;5104541;28;20302;-66
2023/10/05 12:57:53;;;;;;;1.67;1.00;;;19.70;93.20;;;;;;5108950;28;20253;-66
2023/10/05 13:00:26;;;;;;;1.50;1.00;;;20.10;93.10;;;;;;5108898;28;20188;-66
2023/10/05 13:02:54;;;;;;;1.83;1.15;;;20.30;92.80;;;;;;5140971;27;20243;-66
2023/10/05 13:05:23;;;;;;;2.92;1.45;;;20.40;92.60;;;;;;5108549;28;20643;-66
2023/10/05 13:07:53;;;;;;;2.80;1.00;;;20.40;92.00;;;;;;5112654;27;20229;-66
2023/10/05 13:10:26;;;;;;;1.30;0.85;;;20.30;91.60;;;;;;5112208;28;20500;-66
2023/10/05 13:13:00;;;;;;;1.13;1.00;;;20.10;91.70;;;;;;5111449;27;20188;-66